createdAt,value
2019-03-23T00:00:11.132Z,4.62
2019-03-23T00:02:43.442Z,5.15
2019-03-23T00:05:15.742Z,4.97
2019-03-23T00:07:48.920Z,4.97
2019-03-23T00:10:21.211Z,5.42
2019-03-23T00:12:53.482Z,5.00
2019-03-23T00:15:25.778Z,4.75
2019-03-23T00:17:58.104Z,4.95
2019-03-23T00:20:30.346Z,5.47
2019-03-23T00:23:02.627Z,5.42
2019-03-23T00:25:34.847Z,4.97
2019-03-23T00:28:07.114Z,4.90
2019-03-23T00:30:39.347Z,4.60
2019-03-23T00:33:12.562Z,5.42
2019-03-23T00:35:44.866Z,4.70
2019-03-23T00:38:17.104Z,4.30
2019-03-23T00:40:49.357Z,6.15
2019-03-23T00:43:21.603Z,5.15
2019-03-23T00:45:54.742Z,5.72
2019-03-23T00:48:29.136Z,8.55
2019-03-23T00:51:02.358Z,5.37
2019-03-23T00:53:36.590Z,5.40
2019-03-23T00:56:08.996Z,5.17
2019-03-23T00:58:41.439Z,5.50
2019-03-23T01:01:13.736Z,4.85
2019-03-23T01:03:46.196Z,5.10
2019-03-23T01:06:18.474Z,4.62
2019-03-23T01:08:50.832Z,4.70
2019-03-23T01:11:23.119Z,4.83
2019-03-23T01:13:55.454Z,4.30
2019-03-23T01:16:27.719Z,4.72
2019-03-23T01:19:00.039Z,4.40
2019-03-23T01:21:32.270Z,4.58
2019-03-23T01:24:04.545Z,5.28
2019-03-23T01:26:36.775Z,5.00
2019-03-23T01:29:09.013Z,4.63
2019-03-23T01:31:41.243Z,4.53
2019-03-23T01:34:13.479Z,4.87
2019-03-23T01:36:45.699Z,5.12
2019-03-23T01:39:18.051Z,5.08
2019-03-23T01:41:50.352Z,5.22
2019-03-23T01:44:22.599Z,5.30
2019-03-23T01:46:54.821Z,4.78
2019-03-23T01:49:27.059Z,5.40
2019-03-23T01:51:59.294Z,5.12
2019-03-23T01:54:31.730Z,5.03
2019-03-23T01:57:04.079Z,5.15
2019-03-23T01:59:36.331Z,5.60
2019-03-23T02:02:08.551Z,5.87
2019-03-23T02:04:40.944Z,5.45
2019-03-23T02:07:14.253Z,5.83
2019-03-23T02:09:46.748Z,5.75
2019-03-23T02:12:19.028Z,6.50
2019-03-23T02:14:51.339Z,6.35
2019-03-23T02:17:23.833Z,5.22
2019-03-23T02:19:57.774Z,6.55
2019-03-23T02:22:30.032Z,6.53
2019-03-23T02:25:02.300Z,6.12
2019-03-23T02:27:34.603Z,6.00
2019-03-23T02:30:08.620Z,6.47
2019-03-23T02:32:40.864Z,7.10
2019-03-23T02:35:13.176Z,6.70
2019-03-23T02:37:45.436Z,7.03
2019-03-23T02:40:17.675Z,6.97
2019-03-23T02:42:49.909Z,6.92
2019-03-23T02:45:22.155Z,6.95
2019-03-23T02:47:54.461Z,7.50
2019-03-23T02:50:26.704Z,6.87
2019-03-23T02:52:58.932Z,7.62
2019-03-23T02:55:31.182Z,7.83
2019-03-23T02:58:03.439Z,7.83
2019-03-23T03:00:36.722Z,7.92
2019-03-23T03:03:08.982Z,8.13
2019-03-23T03:05:41.233Z,8.20
2019-03-23T03:08:13.480Z,8.88
2019-03-23T03:10:45.743Z,8.25
2019-03-23T03:13:17.999Z,8.50
2019-03-23T03:15:50.252Z,8.65
2019-03-23T03:18:22.566Z,9.33
2019-03-23T03:20:54.826Z,10.18
2019-03-23T03:23:27.075Z,10.48
2019-03-23T03:25:59.321Z,10.95
2019-03-23T03:28:31.542Z,10.55
2019-03-23T03:31:03.887Z,9.80
2019-03-23T03:33:36.347Z,12.55
2019-03-23T03:36:08.589Z,11.03
2019-03-23T03:38:40.850Z,10.55
2019-03-23T03:41:13.096Z,12.43
2019-03-23T03:43:45.368Z,11.00
2019-03-23T03:46:17.654Z,10.15
2019-03-23T03:48:49.893Z,10.23
2019-03-23T03:51:22.159Z,10.98
2019-03-23T03:53:54.463Z,8.95
2019-03-23T03:56:26.699Z,8.98
2019-03-23T03:58:58.932Z,9.73
2019-03-23T04:01:31.163Z,9.15
2019-03-23T04:04:03.391Z,9.80
2019-03-23T04:06:35.676Z,10.58
2019-03-23T04:09:08.013Z,11.53
2019-03-23T04:11:40.262Z,12.18
2019-03-23T04:14:12.516Z,12.82
2019-03-23T04:16:44.755Z,13.35
2019-03-23T04:19:17.079Z,15.75
2019-03-23T04:21:49.380Z,18.45
2019-03-23T04:24:21.822Z,19.60
2019-03-23T04:26:54.104Z,18.30
2019-03-23T04:29:26.373Z,18.02
2019-03-23T04:31:58.601Z,18.45
2019-03-23T04:34:30.892Z,21.37
2019-03-23T04:37:03.218Z,23.87
2019-03-23T04:39:35.452Z,24.67
2019-03-23T04:42:07.695Z,24.02
2019-03-23T04:44:39.966Z,31.12
2019-03-23T04:47:12.251Z,36.85
2019-03-23T04:49:44.527Z,44.58
2019-03-23T04:52:16.855Z,48.48
2019-03-23T04:54:49.099Z,53.95
2019-03-23T04:57:21.344Z,58.10
2019-03-23T04:59:53.586Z,58.28
2019-03-23T05:02:25.886Z,56.05
2019-03-23T05:04:58.187Z,58.08
2019-03-23T05:07:30.428Z,55.73
2019-03-23T05:10:02.763Z,57.43
2019-03-23T05:12:35.011Z,55.35
2019-03-23T05:15:07.722Z,55.15
2019-03-23T05:17:39.999Z,54.55
2019-03-23T05:20:13.763Z,53.37
2019-03-23T05:22:46.013Z,53.92
2019-03-23T05:25:26.000Z,55.23
2019-03-23T05:27:58.441Z,52.17
2019-03-23T05:30:30.774Z,51.50
2019-03-23T05:33:03.017Z,47.35
2019-03-23T05:35:35.295Z,49.88
2019-03-23T05:38:07.569Z,49.63
2019-03-23T05:40:39.831Z,50.30
2019-03-23T05:43:12.069Z,50.50
2019-03-23T05:45:44.478Z,50.38
2019-03-23T05:48:16.719Z,51.77
2019-03-23T05:50:49.036Z,51.30
2019-03-23T05:53:21.271Z,51.40
2019-03-23T05:55:53.566Z,50.55
2019-03-23T05:58:25.799Z,46.48
2019-03-23T06:00:58.086Z,50.30
2019-03-23T06:03:30.370Z,50.90
2019-03-23T06:06:02.623Z,49.10
2019-03-23T06:08:34.860Z,54.15
2019-03-23T06:11:07.209Z,54.25
2019-03-23T06:13:39.462Z,51.33
2019-03-23T06:16:11.699Z,54.35
2019-03-23T06:18:43.944Z,50.63
2019-03-23T06:21:16.205Z,53.35
2019-03-23T06:23:48.461Z,52.38
2019-03-23T06:26:20.722Z,49.27
2019-03-23T06:28:53.064Z,53.35
2019-03-23T06:31:25.334Z,52.65
2019-03-23T06:33:58.279Z,50.98
2019-03-23T06:36:30.544Z,52.38
2019-03-23T06:39:05.650Z,49.98
2019-03-23T06:41:38.251Z,52.20
2019-03-23T06:44:10.493Z,50.15
2019-03-23T06:46:42.740Z,48.28
2019-03-23T06:49:15.039Z,50.53
2019-03-23T06:51:47.290Z,49.23
2019-03-23T06:54:19.534Z,48.33
2019-03-23T06:56:51.779Z,47.58
2019-03-23T06:59:24.074Z,47.03
2019-03-23T07:01:56.348Z,47.03
2019-03-23T07:04:28.600Z,47.78
2019-03-23T07:07:00.871Z,45.98
2019-03-23T07:09:33.117Z,44.93
2019-03-23T07:12:05.368Z,41.48
2019-03-23T07:14:37.617Z,41.10
2019-03-23T07:17:09.851Z,41.20
2019-03-23T07:19:42.093Z,40.33
2019-03-23T07:22:14.358Z,41.18
2019-03-23T07:24:46.644Z,41.48
2019-03-23T07:27:18.943Z,39.58
2019-03-23T07:29:52.188Z,37.08
2019-03-23T07:32:24.627Z,37.55
2019-03-23T07:34:57.244Z,38.20
2019-03-23T07:37:29.576Z,39.03
2019-03-23T07:40:01.810Z,36.73
2019-03-23T07:42:34.057Z,40.85
2019-03-23T07:45:16.474Z,41.67
2019-03-23T07:47:48.763Z,43.05
2019-03-23T07:50:21.027Z,44.77
2019-03-23T07:52:53.322Z,44.88
2019-03-23T07:55:25.647Z,45.12
2019-03-23T07:57:58.525Z,46.68
2019-03-23T08:00:31.698Z,46.53
2019-03-23T08:03:03.938Z,45.60
2019-03-23T08:05:36.177Z,47.15
2019-03-23T08:08:09.549Z,42.43
2019-03-23T08:10:41.843Z,44.93
2019-03-23T08:13:14.116Z,46.42
2019-03-23T08:15:46.343Z,49.45
2019-03-23T08:18:18.701Z,50.95
2019-03-23T08:20:50.931Z,50.25
2019-03-23T08:23:23.242Z,51.55
2019-03-23T08:25:56.420Z,49.25
2019-03-23T08:28:28.739Z,53.70
2019-03-23T08:31:01.017Z,53.87
2019-03-23T08:33:34.227Z,52.23
2019-03-23T08:36:06.547Z,54.60
2019-03-23T08:38:38.927Z,54.58
2019-03-23T08:41:11.281Z,48.42
2019-03-23T08:43:43.571Z,49.93
2019-03-23T08:46:15.823Z,46.33
2019-03-23T08:48:48.075Z,47.20
2019-03-23T08:51:20.324Z,45.25
2019-03-23T08:53:52.650Z,40.23
2019-03-23T08:56:24.980Z,46.08
2019-03-23T08:58:57.440Z,51.05
2019-03-23T09:01:29.739Z,52.35
2019-03-23T09:04:02.134Z,52.40
2019-03-23T09:06:34.423Z,50.70
2019-03-23T09:09:06.692Z,50.85
2019-03-23T09:11:38.935Z,49.77
2019-03-23T09:14:11.222Z,51.05
2019-03-23T09:16:43.487Z,50.12
2019-03-23T09:19:15.939Z,47.25
2019-03-23T09:21:48.332Z,44.73
2019-03-23T09:24:20.703Z,42.88
2019-03-23T09:26:52.986Z,44.77
2019-03-23T09:29:25.235Z,44.50
2019-03-23T09:31:57.625Z,40.12
2019-03-23T09:34:29.889Z,43.73
2019-03-23T09:37:02.143Z,39.40
2019-03-23T09:39:34.448Z,39.15
2019-03-23T09:42:07.182Z,41.53
2019-03-23T09:44:39.597Z,40.03
2019-03-23T09:47:11.822Z,39.48
2019-03-23T09:49:44.174Z,39.92
2019-03-23T09:52:16.485Z,42.95
2019-03-23T09:54:49.670Z,39.90
2019-03-23T09:57:21.960Z,41.55
2019-03-23T09:59:54.283Z,47.10
2019-03-23T10:02:26.518Z,45.60
2019-03-23T10:04:58.802Z,44.27
2019-03-23T10:07:31.093Z,47.27
2019-03-23T10:10:03.531Z,46.20
2019-03-23T10:12:35.863Z,48.52
2019-03-23T10:15:09.767Z,43.52
2019-03-23T10:17:42.034Z,49.80
2019-03-23T10:20:14.496Z,47.83
2019-03-23T10:22:46.783Z,53.80
2019-03-23T10:25:19.214Z,50.05
2019-03-23T10:27:51.549Z,55.55
2019-03-23T10:30:24.641Z,48.68
2019-03-23T10:32:57.579Z,48.68
2019-03-23T10:35:30.131Z,51.08
2019-03-23T10:38:02.399Z,44.70
2019-03-23T10:40:35.722Z,42.85
2019-03-23T10:43:09.027Z,43.42
2019-03-23T10:45:44.376Z,43.10
2019-03-23T10:50:51.375Z,47.27
2019-03-23T10:53:23.721Z,47.40
2019-03-23T10:55:56.107Z,50.63
2019-03-23T10:58:28.369Z,51.73
2019-03-23T11:01:00.619Z,48.52
2019-03-23T11:03:32.849Z,48.83
2019-03-23T11:06:05.116Z,46.63
2019-03-23T11:08:37.428Z,50.12
2019-03-23T11:11:09.683Z,50.55
2019-03-23T11:13:42.019Z,50.17
2019-03-23T11:16:14.335Z,52.98
2019-03-23T11:18:47.513Z,53.28
2019-03-23T11:21:19.785Z,49.88
2019-03-23T11:23:52.131Z,54.27
2019-03-23T11:26:24.486Z,54.95
2019-03-23T11:28:58.343Z,51.18
2019-03-23T11:31:31.104Z,54.63
2019-03-23T11:34:03.419Z,54.67
2019-03-23T11:36:35.666Z,50.28
2019-03-23T11:39:08.874Z,53.63
2019-03-23T11:41:41.243Z,49.83
2019-03-23T11:44:14.427Z,51.23
2019-03-23T11:46:46.823Z,52.30
2019-03-23T11:49:19.159Z,54.45
2019-03-23T11:51:51.439Z,51.85
2019-03-23T11:54:23.700Z,52.13
2019-03-23T11:56:55.927Z,50.05
2019-03-23T11:59:28.178Z,51.98
2019-03-23T12:02:00.408Z,50.40
2019-03-23T12:04:32.672Z,52.70
2019-03-23T12:07:04.925Z,52.27
2019-03-23T12:09:37.323Z,51.37
2019-03-23T12:12:09.623Z,52.15
2019-03-23T12:14:42.058Z,49.55
2019-03-23T12:17:14.307Z,49.93
2019-03-23T12:19:46.640Z,52.67
2019-03-23T12:22:18.953Z,50.50
2019-03-23T12:24:51.257Z,46.00
2019-03-23T12:27:24.776Z,50.70
2019-03-23T12:30:06.751Z,59.75
2019-03-23T12:32:31.130Z,50.63
2019-03-23T12:35:04.482Z,53.83
2019-03-23T12:37:36.729Z,50.80
2019-03-23T12:40:09.201Z,50.70
2019-03-23T12:42:41.427Z,49.45
2019-03-23T12:45:13.748Z,51.70
2019-03-23T12:47:46.001Z,51.63
2019-03-23T12:50:18.257Z,54.38
2019-03-23T12:52:50.498Z,65.47
2019-03-23T12:55:23.783Z,52.40
2019-03-23T12:57:58.206Z,54.30
2019-03-23T13:00:30.523Z,52.25
2019-03-23T13:03:02.820Z,54.53
2019-03-23T13:05:35.058Z,52.48
2019-03-23T13:08:07.307Z,49.05
2019-03-23T13:10:39.546Z,47.03
2019-03-23T13:13:11.911Z,48.60
2019-03-23T13:15:44.183Z,47.85
2019-03-23T13:18:26.705Z,50.05
2019-03-23T13:20:50.573Z,49.40
2019-03-23T13:23:22.828Z,49.45
2019-03-23T13:25:55.164Z,49.03
2019-03-23T13:28:27.586Z,49.67
2019-03-23T13:31:00.007Z,51.20
2019-03-23T13:33:32.332Z,50.78
2019-03-23T13:36:05.665Z,47.35
2019-03-23T13:38:37.921Z,48.70
2019-03-23T13:41:10.151Z,49.73
2019-03-23T13:44:25.857Z,50.17
2019-03-23T13:46:58.174Z,49.60
2019-03-23T13:49:30.734Z,50.58
2019-03-23T13:52:02.998Z,50.63
2019-03-23T13:54:35.237Z,50.90
2019-03-23T13:57:07.474Z,49.42
2019-03-23T13:59:40.826Z,48.85
2019-03-23T14:02:13.346Z,50.25
2019-03-23T14:04:45.594Z,52.15
2019-03-23T14:07:18.112Z,51.83
2019-03-23T14:09:50.427Z,51.58
2019-03-23T14:12:22.702Z,50.05
2019-03-23T14:14:54.931Z,49.08
2019-03-23T14:17:27.259Z,49.30
2019-03-23T14:19:59.527Z,50.88
2019-03-23T14:22:31.880Z,50.88
2019-03-23T14:25:07.457Z,52.25
2019-03-23T14:27:39.922Z,51.65
2019-03-23T14:30:12.417Z,50.12
2019-03-23T14:32:44.670Z,50.90
2019-03-23T14:35:16.908Z,52.58
2019-03-23T14:37:49.322Z,51.20
2019-03-23T14:40:21.687Z,50.83
2019-03-23T14:42:54.019Z,45.15
2019-03-23T14:45:26.309Z,47.48
2019-03-23T14:47:59.721Z,44.70
2019-03-23T14:50:32.064Z,41.58
2019-03-23T14:53:04.333Z,43.63
2019-03-23T14:55:37.546Z,43.20
2019-03-23T14:58:09.867Z,39.75
2019-03-23T15:00:42.185Z,40.73
2019-03-23T15:03:14.511Z,41.13
2019-03-23T15:05:46.810Z,41.20
2019-03-23T15:08:19.188Z,40.38
2019-03-23T15:10:51.616Z,40.48
2019-03-23T15:13:23.894Z,39.63
2019-03-23T15:15:56.163Z,38.95
2019-03-23T15:18:29.293Z,40.03
2019-03-23T15:21:01.579Z,41.70
2019-03-23T15:23:34.294Z,39.80
2019-03-23T15:26:06.542Z,39.45
2019-03-23T15:28:39.671Z,39.00
2019-03-23T15:31:11.905Z,46.48
2019-03-23T15:33:44.677Z,66.15
2019-03-23T15:36:17.450Z,217.25
2019-03-23T15:38:49.696Z,49.45
2019-03-23T15:41:22.007Z,66.67
2019-03-23T15:43:54.274Z,45.30
2019-03-23T15:46:26.588Z,39.30
2019-03-23T15:48:58.876Z,62.33
2019-03-23T15:51:31.382Z,37.83
2019-03-23T15:54:03.721Z,41.70
2019-03-23T15:56:36.477Z,50.52
2019-03-23T15:59:09.003Z,89.13
2019-03-23T16:01:41.404Z,49.90
2019-03-23T16:04:13.665Z,49.42
2019-03-23T16:06:45.907Z,49.38
2019-03-23T16:09:18.195Z,43.60
2019-03-23T16:11:50.523Z,51.20
2019-03-23T16:14:22.780Z,41.80
2019-03-23T16:16:55.034Z,48.00
2019-03-23T16:19:27.292Z,42.27
2019-03-23T16:22:00.673Z,44.88
2019-03-23T16:24:33.451Z,43.45
2019-03-23T16:27:05.698Z,46.53
2019-03-23T16:29:38.153Z,41.08
2019-03-23T16:32:10.532Z,46.83
2019-03-23T16:34:42.803Z,52.48
2019-03-23T16:37:15.153Z,62.80
2019-03-23T16:39:47.451Z,54.25
2019-03-23T16:42:20.049Z,45.03
2019-03-23T16:44:52.383Z,69.07
2019-03-23T16:47:24.679Z,41.50
2019-03-23T16:49:56.977Z,40.67
2019-03-23T16:52:29.227Z,39.83
2019-03-23T16:55:01.780Z,40.60
2019-03-23T16:57:34.570Z,42.13
2019-03-23T17:00:11.227Z,41.25
2019-03-23T17:02:43.970Z,39.75
2019-03-23T17:05:16.204Z,38.28
2019-03-23T17:07:48.472Z,38.45
2019-03-23T17:10:20.930Z,37.90
2019-03-23T17:12:55.607Z,64.00
2019-03-23T17:15:27.338Z,93.37
2019-03-23T17:17:59.626Z,72.50
2019-03-23T17:20:33.968Z,48.00
2019-03-23T17:23:06.197Z,43.68
2019-03-23T17:25:38.473Z,40.95
2019-03-23T17:28:10.749Z,53.78
2019-03-23T17:30:43.384Z,40.20
2019-03-23T17:33:15.698Z,40.90
2019-03-23T17:35:47.971Z,39.10
2019-03-23T17:38:20.223Z,39.08
2019-03-23T17:40:52.643Z,38.73
2019-03-23T17:43:24.925Z,38.45
2019-03-23T17:45:57.285Z,36.25
2019-03-23T17:48:29.699Z,36.48
2019-03-23T17:51:02.037Z,38.40
2019-03-23T17:53:34.426Z,36.68
2019-03-23T17:56:06.682Z,36.23
2019-03-23T17:58:38.992Z,35.78
2019-03-23T18:01:19.372Z,35.45
2019-03-23T18:03:47.466Z,35.50
2019-03-23T18:06:19.786Z,34.43
2019-03-23T18:08:52.018Z,36.65
2019-03-23T18:11:24.517Z,36.63
2019-03-23T18:13:56.771Z,37.53
2019-03-23T18:16:29.094Z,35.17
2019-03-23T18:19:01.357Z,35.23
2019-03-23T18:21:33.822Z,35.48
2019-03-23T18:24:06.943Z,33.15
2019-03-23T18:26:39.187Z,34.23
2019-03-23T18:29:11.415Z,33.00
2019-03-23T18:31:43.815Z,34.03
2019-03-23T18:34:16.099Z,33.83
2019-03-23T18:36:48.388Z,34.85
2019-03-23T18:39:20.622Z,32.30
2019-03-23T18:41:52.871Z,34.75
2019-03-23T18:44:25.107Z,33.28
2019-03-23T18:46:57.397Z,33.38
2019-03-23T18:49:29.649Z,34.78
2019-03-23T18:52:02.058Z,36.35
2019-03-23T18:54:34.274Z,34.78
2019-03-23T18:57:06.607Z,33.18
2019-03-23T18:59:38.846Z,33.73
2019-03-23T19:02:11.090Z,33.13
2019-03-23T19:04:43.324Z,32.95
2019-03-23T19:07:15.670Z,36.33
2019-03-23T19:09:47.915Z,35.45
2019-03-23T19:12:20.169Z,34.98
2019-03-23T19:14:52.398Z,33.48
2019-03-23T19:17:24.987Z,35.75
2019-03-23T19:19:57.227Z,36.83
2019-03-23T19:22:29.553Z,35.05
2019-03-23T19:25:01.800Z,33.78
2019-03-23T19:27:34.127Z,37.13
2019-03-23T19:30:07.525Z,36.17
2019-03-23T19:32:39.774Z,36.42
2019-03-23T19:35:12.155Z,36.48
2019-03-23T19:37:44.710Z,35.00
2019-03-23T19:40:17.012Z,35.88
2019-03-23T19:42:49.278Z,35.73
2019-03-23T19:45:21.554Z,36.20
2019-03-23T19:47:53.795Z,35.25
2019-03-23T19:50:26.041Z,35.90
2019-03-23T19:52:58.285Z,36.63
2019-03-23T19:55:32.415Z,36.50
2019-03-23T19:58:05.633Z,37.23
2019-03-23T20:00:37.926Z,35.73
2019-03-23T20:03:10.179Z,36.23
2019-03-23T20:05:43.521Z,37.55
2019-03-23T20:08:15.942Z,37.88
2019-03-23T20:10:48.679Z,38.75
2019-03-23T20:13:21.012Z,37.83
2019-03-23T20:15:53.243Z,36.93
2019-03-23T20:18:25.534Z,35.63
2019-03-23T20:20:58.247Z,37.08
2019-03-23T20:23:30.930Z,37.55
2019-03-23T20:26:03.210Z,43.50
2019-03-23T20:28:36.431Z,39.63
2019-03-23T20:31:08.675Z,35.78
2019-03-23T20:33:40.950Z,37.78
2019-03-23T20:36:13.205Z,42.95
2019-03-23T20:38:45.459Z,40.25
2019-03-23T20:41:17.853Z,34.48
2019-03-23T20:43:50.121Z,34.35
2019-03-23T20:46:23.388Z,48.63
2019-03-23T20:48:56.671Z,42.75
2019-03-23T20:51:29.276Z,43.17
2019-03-23T20:54:01.765Z,46.70
2019-03-23T20:56:35.496Z,47.10
2019-03-23T20:59:07.756Z,46.08
2019-03-23T21:01:39.986Z,44.83
2019-03-23T21:04:13.792Z,41.80
2019-03-23T21:06:46.259Z,42.88
2019-03-23T21:09:18.518Z,43.20
2019-03-23T21:11:50.819Z,41.60
2019-03-23T21:14:23.066Z,43.65
2019-03-23T21:16:55.331Z,40.95
2019-03-23T21:19:27.613Z,41.10
2019-03-23T21:21:59.889Z,41.68
2019-03-23T21:24:32.288Z,38.95
2019-03-23T21:27:04.539Z,39.27
2019-03-23T21:29:37.239Z,39.80
2019-03-23T21:32:09.517Z,39.45
2019-03-23T21:34:41.896Z,38.83
2019-03-23T21:37:14.195Z,38.05
2019-03-23T21:39:47.467Z,39.13
2019-03-23T21:42:19.890Z,38.70
2019-03-23T21:44:52.122Z,38.05
2019-03-23T21:47:24.542Z,37.45
2019-03-23T21:49:57.352Z,36.80
2019-03-23T21:52:29.903Z,38.08
2019-03-23T21:55:02.730Z,37.90
2019-03-23T21:57:35.394Z,37.15
2019-03-23T22:00:07.990Z,35.00
2019-03-23T22:02:40.241Z,36.20
2019-03-23T22:05:12.499Z,37.78
2019-03-23T22:07:44.766Z,38.38
2019-03-23T22:10:16.990Z,36.83
2019-03-23T22:12:49.236Z,36.28
2019-03-23T22:15:21.506Z,38.67
2019-03-23T22:17:53.749Z,39.27
2019-03-23T22:20:25.979Z,38.38
2019-03-23T22:22:58.266Z,38.95
2019-03-23T22:25:30.540Z,38.33
2019-03-23T22:28:02.821Z,37.42
2019-03-23T22:30:35.336Z,39.25
2019-03-23T22:33:07.583Z,38.45
2019-03-23T22:35:39.820Z,38.17
2019-03-23T22:38:12.068Z,38.42
2019-03-23T22:40:44.308Z,44.00
2019-03-23T22:43:16.599Z,40.50
2019-03-23T22:45:48.931Z,40.05
2019-03-23T22:48:21.179Z,38.60
2019-03-23T22:50:53.410Z,37.35
2019-03-23T22:53:25.671Z,38.48
2019-03-23T22:55:57.894Z,40.85
2019-03-23T22:58:30.164Z,43.38
2019-03-23T23:01:02.404Z,130.57
2019-03-23T23:03:34.659Z,64.87
2019-03-23T23:06:06.891Z,39.98
2019-03-23T23:08:39.205Z,36.93
2019-03-23T23:11:12.481Z,38.02
2019-03-23T23:13:44.791Z,37.93
2019-03-23T23:16:17.082Z,37.33
2019-03-23T23:18:49.326Z,38.17
2019-03-23T23:21:21.576Z,39.58
2019-03-23T23:23:54.231Z,36.35
2019-03-23T23:26:26.957Z,36.15
2019-03-23T23:28:59.221Z,66.82
2019-03-23T23:31:31.455Z,254.10
2019-03-23T23:34:04.056Z,45.78
2019-03-23T23:36:37.680Z,36.65
2019-03-23T23:39:09.994Z,36.53
2019-03-23T23:41:42.245Z,36.83
2019-03-23T23:44:15.519Z,36.15
2019-03-23T23:46:47.756Z,35.83
2019-03-23T23:49:20.002Z,35.08
2019-03-23T23:51:52.235Z,38.98
2019-03-23T23:54:24.490Z,39.35
2019-03-23T23:56:56.735Z,36.88
2019-03-23T23:59:28.949Z,37.55
